createdAt,value
2019-01-09T00:03:11.568Z,94.27
2019-01-09T00:07:18.285Z,101.37
2019-01-09T00:11:26.872Z,79.63
2019-01-09T00:16:00.452Z,91.13
2019-01-09T00:20:07.914Z,92.73
2019-01-09T00:24:16.724Z,71.43
2019-01-09T00:28:25.141Z,91.80
2019-01-09T00:32:31.740Z,87.00
2019-01-09T00:36:38.328Z,85.40
2019-01-09T00:40:47.001Z,90.37
2019-01-09T00:44:54.037Z,95.60
2019-01-09T00:49:00.628Z,86.83
2019-01-09T00:53:07.106Z,87.53
2019-01-09T00:57:14.545Z,83.60
2019-01-09T01:01:22.844Z,94.03
2019-01-09T01:05:59.959Z,81.97
2019-01-09T01:10:23.616Z,87.40
2019-01-09T01:14:41.721Z,84.83
2019-01-09T01:19:02.373Z,93.47
2019-01-09T01:23:21.136Z,79.67
2019-01-09T01:27:39.507Z,91.00
2019-01-09T01:32:24.060Z,87.17
2019-01-09T01:36:57.528Z,75.97
2019-01-09T01:41:29.669Z,84.70
2019-01-09T01:45:51.712Z,88.27
2019-01-09T01:50:23.520Z,78.50
2019-01-09T01:55:00.617Z,73.33
2019-01-09T01:59:14.704Z,83.40
2019-01-09T02:03:36.443Z,52.73
2019-01-09T02:08:25.393Z,74.27
2019-01-09T02:12:45.005Z,78.67
2019-01-09T02:17:24.698Z,80.73
2019-01-09T02:21:50.264Z,78.17
2019-01-09T02:26:14.010Z,82.20
2019-01-09T02:30:29.509Z,88.07
2019-01-09T02:34:36.922Z,83.30
2019-01-09T02:38:43.272Z,78.17
2019-01-09T02:42:49.944Z,82.83
2019-01-09T02:46:56.258Z,68.77
2019-01-09T02:51:03.542Z,85.97
2019-01-09T02:55:10.242Z,86.80
2019-01-09T02:59:16.833Z,84.33
2019-01-09T03:03:23.268Z,88.57
2019-01-09T03:07:30.537Z,84.57
2019-01-09T03:15:48.710Z,91.47
2019-01-09T03:20:06.222Z,84.20
2019-01-09T03:24:13.732Z,78.63
2019-01-09T03:28:40.027Z,82.07
2019-01-09T03:32:47.223Z,74.37
2019-01-09T03:36:53.569Z,62.10
2019-01-09T03:41:00.700Z,70.37
2019-01-09T03:45:07.772Z,92.90
2019-01-09T03:49:15.784Z,90.13
2019-01-09T03:53:23.827Z,94.20
2019-01-09T03:57:31.627Z,92.30
2019-01-09T04:01:38.154Z,82.17
2019-01-09T04:05:44.662Z,55.83
2019-01-09T04:09:51.370Z,86.53
2019-01-09T04:14:02.832Z,90.17
2019-01-09T04:18:09.956Z,81.00
2019-01-09T04:22:39.059Z,83.23
2019-01-09T04:26:45.434Z,87.03
2019-01-09T04:30:52.147Z,89.67
2019-01-09T04:34:58.953Z,90.50
2019-01-09T04:39:07.511Z,89.13
2019-01-09T04:43:14.909Z,84.57
2019-01-09T04:47:22.238Z,81.13
2019-01-09T04:51:28.508Z,95.03
2019-01-09T04:55:34.856Z,87.93
2019-01-09T04:59:41.511Z,80.80
2019-01-09T05:03:50.292Z,89.33
2019-01-09T05:07:56.228Z,86.00
2019-01-09T05:12:06.688Z,84.50
2019-01-09T05:16:13.204Z,80.53
2019-01-09T05:20:20.774Z,85.90
2019-01-09T05:28:34.300Z,89.97
2019-01-09T05:32:40.798Z,92.03
2019-01-09T05:36:48.120Z,87.40
2019-01-09T05:40:54.577Z,88.23
2019-01-09T05:45:05.208Z,84.67
2019-01-09T05:49:13.313Z,98.77
2019-01-09T05:53:21.318Z,71.03
2019-01-09T05:57:30.693Z,89.07
2019-01-09T06:01:37.219Z,100.43
2019-01-09T06:05:43.773Z,84.23
2019-01-09T06:09:50.905Z,90.90
2019-01-09T06:13:58.128Z,89.90
2019-01-09T06:18:06.418Z,85.03
2019-01-09T06:22:15.010Z,97.47
2019-01-09T06:26:25.127Z,93.77
2019-01-09T06:30:52.483Z,89.67
2019-01-09T06:34:58.876Z,87.67
2019-01-09T06:43:14.691Z,74.67
2019-01-09T06:47:21.113Z,91.03
2019-01-09T06:51:27.533Z,90.47
2019-01-09T06:55:35.906Z,92.63
2019-01-09T06:59:44.043Z,102.47
2019-01-09T07:03:50.382Z,108.57
2019-01-09T07:12:04.839Z,102.80
2019-01-09T07:16:11.497Z,84.50
2019-01-09T07:20:21.216Z,82.87
2019-01-09T07:24:29.478Z,98.40
2019-01-09T07:28:35.797Z,119.93
2019-01-09T07:32:42.937Z,113.97
2019-01-09T07:36:51.867Z,105.90
2019-01-09T07:41:01.178Z,89.90
2019-01-09T07:45:09.081Z,79.97
2019-01-09T07:49:19.994Z,124.53
2019-01-09T07:53:26.798Z,129.90
2019-01-09T07:57:34.474Z,123.97
2019-01-09T08:01:41.932Z,136.47
2019-01-09T08:05:49.614Z,99.97
2019-01-09T08:09:55.952Z,110.33
2019-01-09T08:14:02.739Z,105.73
2019-01-09T08:18:09.206Z,104.60
2019-01-09T08:22:16.515Z,109.53
2019-01-09T08:26:27.383Z,118.20
2019-01-09T08:30:33.701Z,94.10
2019-01-09T08:34:40.281Z,100.20
2019-01-09T08:38:48.016Z,90.30
2019-01-09T08:42:55.242Z,94.10
2019-01-09T08:47:25.952Z,82.97
2019-01-09T08:51:35.069Z,94.07
2019-01-09T08:56:02.931Z,90.80
2019-01-09T09:00:11.263Z,90.07
2019-01-09T09:04:20.568Z,88.70
2019-01-09T09:08:28.026Z,93.83
2019-01-09T09:12:34.541Z,84.40
2019-01-09T09:16:41.983Z,80.27
2019-01-09T09:20:48.472Z,89.73
2019-01-09T09:24:54.850Z,84.80
2019-01-09T09:29:02.585Z,92.97
2019-01-09T09:33:08.992Z,82.70
2019-01-09T09:37:18.974Z,79.80
2019-01-09T09:41:25.084Z,80.97
2019-01-09T09:49:39.240Z,65.73
2019-01-09T09:53:46.342Z,71.03
2019-01-09T09:57:52.631Z,68.97
2019-01-09T10:01:59.551Z,71.43
2019-01-09T10:06:09.105Z,52.97
2019-01-09T10:10:16.519Z,68.00
2019-01-09T10:14:22.989Z,70.60
2019-01-09T10:18:29.581Z,77.17
2019-01-09T10:22:36.921Z,80.73
2019-01-09T10:26:43.641Z,65.90
2019-01-09T10:30:51.160Z,57.07
2019-01-09T10:35:00.274Z,64.33
2019-01-09T10:39:09.319Z,89.93
2019-01-09T10:43:15.653Z,73.23
2019-01-09T10:47:23.430Z,59.27
2019-01-09T10:51:33.139Z,74.77
2019-01-09T10:56:01.692Z,61.37
2019-01-09T11:00:11.610Z,69.63
2019-01-09T11:04:20.561Z,68.83
2019-01-09T11:08:26.996Z,66.87
2019-01-09T11:12:33.371Z,50.80
2019-01-09T11:16:40.293Z,58.00
2019-01-09T11:20:46.676Z,72.10
2019-01-09T11:24:54.614Z,67.20
2019-01-09T11:29:02.566Z,70.43
2019-01-09T11:33:12.216Z,68.43
2019-01-09T11:42:05.650Z,56.57
2019-01-09T11:46:12.077Z,64.23
2019-01-09T11:50:41.015Z,78.27
2019-01-09T11:54:47.501Z,68.60
2019-01-09T11:58:54.502Z,79.23
2019-01-09T12:03:01.801Z,73.43
2019-01-09T12:07:08.159Z,89.10
2019-01-09T12:11:15.546Z,82.77
2019-01-09T12:15:24.757Z,94.23
2019-01-09T12:19:34.440Z,104.33
2019-01-09T12:23:42.882Z,102.73
2019-01-09T12:27:49.323Z,100.87
2019-01-09T12:31:55.840Z,112.30
2019-01-09T12:36:02.453Z,106.67
2019-01-09T12:40:09.578Z,106.57
2019-01-09T12:44:16.533Z,122.37
2019-01-09T12:48:27.153Z,125.30
2019-01-09T12:52:33.867Z,116.37
2019-01-09T12:56:41.130Z,125.73
2019-01-09T13:00:48.225Z,125.90
2019-01-09T13:04:58.405Z,126.93
2019-01-09T13:09:11.498Z,120.83
2019-01-09T13:13:19.823Z,118.53
2019-01-09T13:17:31.069Z,125.07
2019-01-09T13:21:37.692Z,121.80
2019-01-09T13:25:44.080Z,124.77
2019-01-09T13:29:54.233Z,113.47
2019-01-09T13:34:00.589Z,120.90
2019-01-09T13:38:08.247Z,130.70
2019-01-09T13:42:17.467Z,131.37
2019-01-09T13:46:23.941Z,141.87
2019-01-09T13:50:34.866Z,117.53
2019-01-09T13:54:42.159Z,117.33
2019-01-09T13:58:51.781Z,131.40
2019-01-09T14:02:58.243Z,120.43
2019-01-09T14:07:05.543Z,111.87
2019-01-09T14:11:12.078Z,109.47
2019-01-09T14:15:19.840Z,96.57
2019-01-09T14:19:26.365Z,92.33
2019-01-09T14:23:35.197Z,91.50
2019-01-09T14:27:42.775Z,100.43
2019-01-09T14:31:49.475Z,89.40
2019-01-09T14:35:58.686Z,75.03
2019-01-09T14:40:06.911Z,100.63
2019-01-09T14:44:17.095Z,93.93
2019-01-09T14:48:23.451Z,87.00
2019-01-09T14:52:30.126Z,101.20
2019-01-09T14:56:36.441Z,74.90
2019-01-09T15:00:43.529Z,94.67
2019-01-09T15:04:53.604Z,81.80
2019-01-09T15:09:00.086Z,70.50
2019-01-09T15:13:10.567Z,91.93
2019-01-09T15:17:16.934Z,87.13
2019-01-09T15:21:23.295Z,93.83
2019-01-09T15:25:30.550Z,75.37
2019-01-09T15:29:36.884Z,85.30
2019-01-09T15:33:44.744Z,85.27
2019-01-09T15:38:12.301Z,93.07
2019-01-09T15:42:19.564Z,84.33
2019-01-09T15:46:26.002Z,77.13
2019-01-09T15:50:33.966Z,88.60
2019-01-09T15:54:42.020Z,89.37
2019-01-09T15:58:48.644Z,94.93
2019-01-09T16:02:55.230Z,92.20
2019-01-09T16:07:06.568Z,96.77
2019-01-09T16:11:15.667Z,76.63
2019-01-09T16:15:25.493Z,98.37
2019-01-09T16:19:34.516Z,95.50
2019-01-09T16:23:39.839Z,58.27
2019-01-09T16:27:46.202Z,80.67
2019-01-09T16:31:52.712Z,86.63
2019-01-09T16:35:59.070Z,91.20
2019-01-09T16:40:08.546Z,80.83
2019-01-09T16:44:15.428Z,83.93
2019-01-09T16:48:22.303Z,88.90
2019-01-09T16:52:28.766Z,84.80
2019-01-09T16:56:35.851Z,92.87
2019-01-09T17:00:42.683Z,99.07
2019-01-09T17:04:49.184Z,99.77
2019-01-09T17:08:55.919Z,106.97
2019-01-09T17:17:29.479Z,99.07
2019-01-09T17:21:38.110Z,97.27
2019-01-09T17:25:47.696Z,95.60
2019-01-09T17:29:56.514Z,104.60
2019-01-09T17:34:23.524Z,97.93
2019-01-09T17:38:29.559Z,101.87
2019-01-09T17:42:36.246Z,100.27
2019-01-09T17:46:50.326Z,112.50
2019-01-09T17:50:56.747Z,67.70
2019-01-09T17:55:04.647Z,99.57
2019-01-09T17:59:11.261Z,118.20
2019-01-09T18:03:18.174Z,99.10
2019-01-09T18:07:25.516Z,101.60
2019-01-09T18:11:32.024Z,102.33
2019-01-09T18:15:38.458Z,96.70
2019-01-09T18:19:46.668Z,114.53
2019-01-09T18:23:53.719Z,105.83
2019-01-09T18:28:00.656Z,115.30
2019-01-09T18:32:45.722Z,97.40
2019-01-09T18:37:10.007Z,95.40
2019-01-09T18:41:45.269Z,92.70
2019-01-09T18:46:19.936Z,81.30
2019-01-09T18:50:41.081Z,80.10
2019-01-09T18:54:47.785Z,97.00
2019-01-09T18:58:56.039Z,99.47
2019-01-09T19:03:04.552Z,111.73
2019-01-09T19:07:12.385Z,90.47
2019-01-09T19:11:19.989Z,105.77
2019-01-09T19:15:28.461Z,101.63
2019-01-09T19:19:35.058Z,104.70
2019-01-09T19:23:41.466Z,107.40
2019-01-09T19:27:55.173Z,108.07
2019-01-09T19:32:01.724Z,109.47
2019-01-09T19:36:09.441Z,113.63
2019-01-09T19:40:17.748Z,110.57
2019-01-09T19:44:30.688Z,105.93
2019-01-09T19:48:37.248Z,111.50
2019-01-09T19:52:54.601Z,111.23
2019-01-09T19:57:01.461Z,105.77
2019-01-09T20:01:10.302Z,99.17
2019-01-09T20:05:19.564Z,112.43
2019-01-09T20:09:38.905Z,110.83
2019-01-09T20:13:45.775Z,98.80
2019-01-09T20:17:55.137Z,98.50
2019-01-09T20:22:02.753Z,70.57
2019-01-09T20:26:09.976Z,104.43
2019-01-09T20:30:20.995Z,98.27
2019-01-09T20:34:27.659Z,100.03
2019-01-09T20:38:35.355Z,101.47
2019-01-09T20:42:41.845Z,101.77
2019-01-09T20:46:48.236Z,93.40
2019-01-09T20:50:54.999Z,94.00
2019-01-09T20:55:22.956Z,103.97
2019-01-09T20:59:35.192Z,97.80
2019-01-09T21:03:42.372Z,89.87
2019-01-09T21:07:49.044Z,96.60
2019-01-09T21:11:58.814Z,101.67
2019-01-09T21:16:05.859Z,82.67
2019-01-09T21:20:14.838Z,94.60
2019-01-09T21:29:03.427Z,115.87
2019-01-09T21:33:10.969Z,89.70
2019-01-09T21:37:17.725Z,112.23
2019-01-09T21:41:28.853Z,102.57
2019-01-09T21:45:39.065Z,98.53
2019-01-09T21:49:46.182Z,90.30
2019-01-09T21:53:53.327Z,102.60
2019-01-09T21:58:01.347Z,99.83
2019-01-09T22:02:08.556Z,93.37
2019-01-09T22:06:15.453Z,95.13
2019-01-09T22:10:26.134Z,112.13
2019-01-09T22:14:33.646Z,98.07
2019-01-09T22:18:40.709Z,101.37
2019-01-09T22:22:48.395Z,104.10
2019-01-09T22:26:54.842Z,94.57
2019-01-09T22:31:02.304Z,94.67
2019-01-09T22:35:10.424Z,44.07
2019-01-09T22:39:16.761Z,108.20
2019-01-09T22:43:24.893Z,83.43
2019-01-09T22:47:31.244Z,99.53
2019-01-09T22:51:42.578Z,70.23
2019-01-09T22:55:48.930Z,96.83
2019-01-09T22:59:55.593Z,95.73
2019-01-09T23:04:22.593Z,88.40
2019-01-09T23:08:30.014Z,99.40
2019-01-09T23:12:36.610Z,99.77
2019-01-09T23:17:22.869Z,98.67
2019-01-09T23:21:30.824Z,78.47
2019-01-09T23:25:37.941Z,85.07
2019-01-09T23:29:47.545Z,95.87
2019-01-09T23:33:54.483Z,100.60
2019-01-09T23:38:00.772Z,93.80
2019-01-09T23:42:30.564Z,111.13
2019-01-09T23:46:36.458Z,98.03
2019-01-09T23:50:44.662Z,84.20
2019-01-09T23:54:52.057Z,105.63
2019-01-09T23:58:59.746Z,108.30
